createdAt,value
2018-09-05T00:00:14.830Z,15.25
2018-09-05T00:01:14.667Z,15.20
2018-09-05T00:02:14.657Z,15.10
2018-09-05T00:03:14.593Z,15.20
2018-09-05T00:04:14.627Z,15.20
2018-09-05T00:05:15.021Z,15.10
2018-09-05T00:06:14.625Z,15.14
2018-09-05T00:07:14.589Z,15.25
2018-09-05T00:08:14.570Z,15.25
2018-09-05T00:09:14.508Z,15.12
2018-09-05T00:10:14.541Z,15.23
2018-09-05T00:11:14.826Z,15.17
2018-09-05T00:12:14.510Z,15.05
2018-09-05T00:13:14.744Z,15.08
2018-09-05T00:14:14.516Z,15.01
2018-09-05T00:15:14.470Z,14.95
2018-09-05T00:16:14.452Z,14.93
2018-09-05T00:18:14.720Z,15.01
2018-09-05T00:19:14.365Z,14.92
2018-09-05T00:20:14.389Z,14.90
2018-09-05T00:21:14.377Z,14.87
2018-09-05T00:22:14.365Z,15.01
2018-09-05T00:23:14.302Z,14.92
2018-09-05T00:24:14.637Z,14.89
2018-09-05T00:25:14.272Z,14.86
2018-09-05T00:26:14.407Z,14.77
2018-09-05T00:27:14.316Z,14.79
2018-09-05T00:30:14.603Z,14.59
2018-09-05T00:31:14.256Z,14.59
2018-09-05T00:32:14.260Z,14.63
2018-09-05T00:33:14.203Z,14.58
2018-09-05T00:34:14.241Z,14.61
2018-09-05T00:35:14.176Z,14.52
2018-09-05T00:36:14.586Z,14.52
2018-09-05T00:37:14.198Z,14.55
2018-09-05T00:38:14.081Z,14.55
2018-09-05T00:39:14.062Z,14.51
2018-09-05T00:40:14.096Z,14.58
2018-09-05T00:41:14.084Z,14.55
2018-09-05T00:42:14.192Z,14.63
2018-09-05T00:44:14.339Z,14.58
2018-09-05T00:45:14.023Z,14.59
2018-09-05T00:46:14.014Z,14.55
2018-09-05T00:47:14.001Z,14.45
2018-09-05T00:49:13.967Z,14.52
2018-09-05T00:50:13.954Z,14.51
2018-09-05T00:51:14.233Z,14.53
2018-09-05T00:52:13.969Z,14.51
2018-09-05T00:53:13.855Z,14.46
2018-09-05T00:54:13.839Z,14.44
2018-09-05T00:55:13.926Z,14.36
2018-09-05T00:57:13.802Z,14.28
2018-09-05T00:58:14.339Z,14.31
2018-09-05T00:59:13.946Z,14.28
2018-09-05T01:00:13.798Z,14.28
2018-09-05T01:01:13.768Z,14.16
2018-09-05T01:02:13.723Z,14.19
2018-09-05T01:03:13.710Z,14.05
2018-09-05T01:04:13.743Z,14.11
2018-09-05T01:05:14.026Z,14.03
2018-09-05T01:06:13.673Z,14.01
2018-09-05T01:07:13.648Z,14.09
2018-09-05T01:08:13.686Z,14.01
2018-09-05T01:09:13.619Z,13.93
2018-09-05T01:10:13.650Z,13.91
2018-09-05T01:11:13.637Z,13.90
2018-09-05T01:12:13.916Z,13.82
2018-09-05T01:13:13.555Z,13.73
2018-09-05T01:14:13.539Z,13.72
2018-09-05T01:15:13.521Z,13.65
2018-09-05T01:16:13.557Z,13.61
2018-09-05T01:17:13.549Z,13.53
2018-09-05T01:18:13.535Z,13.65
2018-09-05T01:19:13.813Z,13.57
2018-09-05T01:20:13.446Z,13.60
2018-09-05T01:21:13.482Z,13.51
2018-09-05T01:22:13.467Z,13.57
2018-09-05T01:23:13.452Z,13.64
2018-09-05T01:24:13.478Z,13.63
2018-09-05T01:25:13.417Z,13.57
2018-09-05T01:26:13.707Z,13.57
2018-09-05T01:27:13.389Z,13.64
2018-09-05T01:30:13.341Z,13.63
2018-09-05T01:31:13.327Z,13.64
2018-09-05T01:32:13.610Z,13.68
2018-09-05T01:33:13.293Z,13.61
2018-09-05T01:34:13.229Z,13.60
2018-09-05T01:35:13.274Z,13.47
2018-09-05T01:36:13.248Z,13.45
2018-09-05T01:37:13.232Z,13.45
2018-09-05T01:38:13.518Z,13.40
2018-09-05T01:39:13.154Z,13.35
2018-09-05T01:40:13.140Z,13.27
2018-09-05T01:41:13.145Z,13.14
2018-09-05T01:42:13.156Z,13.24
2018-09-05T01:43:13.494Z,13.26
2018-09-05T01:44:13.426Z,13.11
2018-09-05T01:45:13.064Z,13.13
2018-09-05T01:46:13.045Z,13.16
2018-09-05T01:47:13.027Z,13.16
2018-09-05T01:48:13.058Z,13.05
2018-09-05T01:49:13.050Z,13.05
2018-09-05T01:50:13.339Z,12.99
2018-09-05T01:51:13.020Z,13.01
2018-09-05T01:52:13.001Z,13.01
2018-09-05T01:54:12.965Z,12.90
2018-09-05T01:55:12.905Z,12.84
2018-09-05T01:56:13.238Z,12.81
2018-09-05T01:57:13.018Z,12.83
2018-09-05T01:58:12.955Z,12.72
2018-09-05T01:59:12.883Z,12.76
2018-09-05T02:00:12.841Z,12.79
2018-09-05T02:01:12.863Z,12.73
2018-09-05T02:02:13.187Z,12.80
2018-09-05T02:03:12.775Z,12.83
2018-09-05T02:04:12.807Z,12.84
2018-09-05T02:05:12.789Z,12.83
2018-09-05T02:06:12.777Z,12.83
2018-09-05T02:07:13.013Z,12.87
2018-09-05T02:08:13.042Z,12.87
2018-09-05T02:09:12.726Z,12.90
2018-09-05T02:10:12.736Z,12.90
2018-09-05T02:11:12.696Z,12.91
2018-09-05T02:12:12.681Z,12.95
2018-09-05T02:13:12.673Z,12.93
2018-09-05T02:14:12.651Z,12.86
2018-09-05T02:15:12.990Z,12.93
2018-09-05T02:16:12.571Z,12.80
2018-09-05T02:17:12.597Z,12.87
2018-09-05T02:18:12.536Z,12.91
2018-09-05T02:19:12.514Z,12.86
2018-09-05T02:20:12.546Z,12.90
2018-09-05T02:21:12.557Z,12.84
2018-09-05T02:22:12.823Z,12.83
2018-09-05T02:23:12.499Z,12.87
2018-09-05T02:26:12.404Z,12.88
2018-09-05T02:27:12.514Z,12.86
2018-09-05T02:28:12.486Z,12.83
2018-09-05T02:29:12.811Z,12.80
2018-09-05T02:30:12.515Z,12.91
2018-09-05T02:31:12.331Z,12.87
2018-09-05T02:32:12.320Z,12.87
2018-09-05T02:33:12.340Z,12.86
2018-09-05T02:34:12.335Z,12.93
2018-09-05T02:35:12.306Z,12.98
2018-09-05T02:36:12.594Z,12.80
2018-09-05T02:37:12.286Z,12.87
2018-09-05T02:39:12.243Z,12.87
2018-09-05T02:40:12.278Z,12.91
2018-09-05T02:42:12.144Z,12.91
2018-09-05T02:43:12.482Z,12.84
2018-09-05T02:44:12.123Z,12.88
2018-09-05T02:45:12.102Z,12.91
2018-09-05T02:46:12.181Z,12.87
2018-09-05T02:47:12.067Z,12.98
2018-09-05T02:48:12.060Z,12.86
2018-09-05T02:49:12.037Z,13.01
2018-09-05T02:50:12.367Z,12.87
2018-09-05T02:51:12.000Z,12.90
2018-09-05T02:52:12.035Z,12.86
2018-09-05T02:53:12.016Z,12.81
2018-09-05T02:54:11.953Z,12.73
2018-09-05T02:55:11.983Z,12.71
2018-09-05T02:56:11.968Z,12.72
2018-09-05T02:58:12.243Z,12.68
2018-09-05T03:01:11.833Z,12.55
2018-09-05T03:02:11.870Z,12.59
2018-09-05T03:04:12.143Z,12.44
2018-09-05T03:05:11.829Z,12.50
2018-09-05T03:06:11.753Z,12.48
2018-09-05T03:07:11.944Z,12.51
2018-09-05T03:08:11.772Z,12.48
2018-09-05T03:09:11.725Z,12.51
2018-09-05T03:10:12.041Z,12.50
2018-09-05T03:11:11.674Z,12.50
2018-09-05T03:12:11.758Z,12.41
2018-09-05T03:14:11.770Z,12.47
2018-09-05T03:15:11.783Z,12.47
2018-09-05T03:16:12.026Z,12.46
2018-09-05T03:17:11.734Z,12.43
2018-09-05T03:18:11.607Z,12.47
2018-09-05T03:19:11.548Z,12.47
2018-09-05T03:20:11.573Z,12.47
2018-09-05T03:21:11.562Z,12.48
2018-09-05T03:22:11.848Z,12.36
2018-09-05T03:23:11.533Z,12.47
2018-09-05T03:24:11.491Z,12.46
2018-09-05T03:25:11.449Z,12.30
2018-09-05T03:26:11.478Z,12.43
2018-09-05T03:27:11.460Z,12.46
2018-09-05T03:28:11.747Z,12.38
2018-09-05T03:29:11.428Z,12.46
2018-09-05T03:31:11.346Z,12.33
2018-09-05T03:32:11.470Z,12.33
2018-09-05T03:33:11.431Z,12.26
2018-09-05T03:34:11.651Z,12.25
2018-09-05T03:35:11.335Z,12.17
2018-09-05T03:36:11.315Z,12.11
2018-09-05T03:37:11.302Z,12.05
2018-09-05T03:38:11.282Z,12.08
2018-09-05T03:39:11.266Z,12.10
2018-09-05T03:40:11.206Z,12.07
2018-09-05T03:41:11.884Z,11.99
2018-09-05T03:42:11.215Z,12.08
2018-09-05T03:43:11.202Z,12.05
2018-09-05T03:44:11.184Z,11.99
2018-09-05T03:45:11.468Z,11.99
2018-09-05T03:46:11.508Z,11.99
2018-09-05T03:47:11.087Z,12.03
2018-09-05T03:48:11.426Z,11.91
2018-09-05T03:49:11.105Z,11.96
2018-09-05T03:50:11.087Z,11.99
2018-09-05T03:51:11.637Z,11.99
2018-09-05T03:52:11.064Z,12.04
2018-09-05T03:53:11.040Z,12.05
2018-09-05T03:54:11.019Z,12.10
2018-09-05T03:55:11.364Z,12.00
2018-09-05T03:56:11.097Z,11.99
2018-09-05T03:57:10.914Z,11.93
2018-09-05T03:58:10.960Z,11.89
2018-09-05T04:01:11.203Z,11.91
2018-09-05T04:03:10.919Z,11.91
2018-09-05T04:05:10.886Z,11.99
2018-09-05T04:07:11.102Z,12.10
2018-09-05T04:09:10.816Z,12.17
2018-09-05T04:10:10.746Z,12.21
2018-09-05T04:11:10.836Z,12.22
2018-09-05T04:12:11.138Z,12.33
2018-09-05T04:13:11.281Z,12.25
2018-09-05T04:14:10.992Z,12.29
2018-09-05T04:15:10.762Z,12.47
2018-09-05T04:16:10.651Z,12.51
2018-09-05T04:17:10.693Z,12.48
2018-09-05T04:19:10.553Z,12.50
2018-09-05T04:20:10.533Z,12.50
2018-09-05T04:21:10.869Z,12.50
2018-09-05T04:22:10.708Z,12.61
2018-09-05T04:23:10.570Z,12.46
2018-09-05T04:24:10.874Z,12.47
2018-09-05T04:25:11.160Z,12.46
2018-09-05T04:26:11.049Z,12.48
2018-09-05T04:27:10.958Z,12.48
2018-09-05T04:28:10.597Z,12.43
2018-09-05T04:29:10.442Z,12.44
2018-09-05T04:30:10.421Z,12.54
2018-09-05T04:31:10.360Z,12.50
2018-09-05T04:32:10.405Z,12.61
2018-09-05T04:33:10.668Z,12.69
2018-09-05T04:34:10.302Z,12.71
2018-09-05T04:35:10.340Z,12.86
2018-09-05T04:36:10.368Z,12.91
2018-09-05T04:37:10.265Z,12.98
2018-09-05T04:38:10.283Z,13.06
2018-09-05T04:39:10.566Z,13.01
2018-09-05T04:40:10.202Z,13.14
2018-09-05T04:42:10.375Z,13.23
2018-09-05T04:43:10.204Z,13.24
2018-09-05T04:44:10.186Z,13.35
2018-09-05T04:45:10.571Z,13.43
2018-09-05T04:46:10.112Z,13.40
2018-09-05T04:47:10.235Z,13.38
2018-09-05T04:48:10.129Z,13.45
2018-09-05T04:49:10.110Z,13.53
2018-09-05T04:50:10.099Z,13.43
2018-09-05T04:51:10.377Z,13.40
2018-09-05T04:52:10.012Z,13.51
2018-09-05T04:53:10.094Z,13.60
2018-09-05T04:54:10.124Z,13.54
2018-09-05T04:55:10.019Z,13.47
2018-09-05T04:56:11.527Z,13.45
2018-09-05T04:57:10.488Z,13.55
2018-09-05T04:58:10.087Z,13.40
2018-09-05T05:00:13.126Z,13.45
2018-09-05T05:01:10.057Z,13.55
2018-09-05T05:02:13.681Z,13.51
2018-09-05T05:04:10.354Z,13.64
2018-09-05T05:05:10.015Z,13.60
2018-09-05T05:06:10.908Z,13.60
2018-09-05T05:07:10.093Z,13.78
2018-09-05T05:08:09.815Z,13.79
2018-09-05T05:09:09.788Z,13.75
2018-09-05T05:10:09.821Z,13.76
2018-09-05T05:11:10.011Z,13.75
2018-09-05T05:12:09.692Z,13.82
2018-09-05T05:13:09.721Z,13.78
2018-09-05T05:14:09.707Z,13.83
2018-09-05T05:15:09.711Z,13.76
2018-09-05T05:16:09.627Z,13.75
2018-09-05T05:17:09.676Z,13.82
2018-09-05T05:18:09.944Z,13.85
2018-09-05T05:19:09.733Z,13.91
2018-09-05T05:20:09.618Z,13.83
2018-09-05T05:21:09.595Z,13.90
2018-09-05T05:22:09.579Z,13.88
2018-09-05T05:23:09.566Z,13.96
2018-09-05T05:24:09.507Z,13.97
2018-09-05T05:25:09.835Z,13.96
2018-09-05T05:26:09.522Z,13.97
2018-09-05T05:27:09.516Z,14.00
2018-09-05T05:28:09.590Z,14.04
2018-09-05T05:29:09.476Z,14.01
2018-09-05T05:30:09.455Z,14.09
2018-09-05T05:31:09.441Z,14.03
2018-09-05T05:32:09.727Z,14.03
2018-09-05T05:33:09.369Z,14.12
2018-09-05T05:34:09.642Z,14.12
2018-09-05T05:35:09.539Z,14.12
2018-09-05T05:36:10.015Z,14.22
2018-09-05T05:37:09.389Z,14.31
2018-09-05T05:38:09.892Z,14.26
2018-09-05T05:39:09.569Z,14.28
2018-09-05T05:40:09.342Z,14.31
2018-09-05T05:41:09.297Z,14.36
2018-09-05T05:42:09.279Z,14.34
2018-09-05T05:43:09.261Z,14.34
2018-09-05T05:44:09.319Z,14.41
2018-09-05T05:45:09.187Z,14.49
2018-09-05T05:46:09.521Z,14.46
2018-09-05T05:47:09.205Z,14.40
2018-09-05T05:48:09.187Z,14.41
2018-09-05T05:49:09.167Z,14.41
2018-09-05T05:50:09.107Z,14.45
2018-09-05T05:51:09.146Z,14.48
2018-09-05T05:52:14.193Z,14.49
2018-09-05T05:53:09.409Z,14.48
2018-09-05T05:54:09.097Z,14.51
2018-09-05T05:55:09.133Z,14.51
2018-09-05T05:56:09.067Z,14.55
2018-09-05T05:57:09.051Z,14.53
2018-09-05T05:58:08.988Z,14.55
2018-09-05T05:59:09.322Z,14.51
2018-09-05T06:00:08.964Z,14.58
2018-09-05T06:01:09.003Z,14.53
2018-09-05T06:02:08.979Z,14.56
2018-09-05T06:03:08.959Z,14.69
2018-09-05T06:04:08.956Z,14.56
2018-09-05T06:05:09.229Z,14.58
2018-09-05T06:07:08.856Z,14.64
2018-09-05T06:08:08.886Z,14.56
2018-09-05T06:10:08.854Z,14.64
2018-09-05T06:11:08.839Z,14.66
2018-09-05T06:12:09.215Z,14.82
2018-09-05T06:13:08.816Z,14.78
2018-09-05T06:14:08.799Z,14.69
2018-09-05T06:15:08.739Z,14.74
2018-09-05T06:16:08.775Z,14.73
2018-09-05T06:17:08.755Z,14.73
2018-09-05T06:18:09.045Z,14.89
2018-09-05T06:19:08.673Z,14.85
2018-09-05T06:20:08.709Z,14.86
2018-09-05T06:21:08.722Z,14.87
2018-09-05T06:22:08.680Z,14.92
2018-09-05T06:23:08.716Z,14.93
2018-09-05T06:24:09.028Z,14.90
2018-09-05T06:25:08.635Z,14.96
2018-09-05T06:26:08.620Z,15.03
2018-09-05T06:27:08.596Z,15.07
2018-09-05T06:28:08.544Z,15.11
2018-09-05T06:29:08.577Z,15.20
2018-09-05T06:30:08.915Z,15.26
2018-09-05T06:31:08.652Z,15.30
2018-09-05T06:32:08.496Z,15.30
2018-09-05T06:33:08.473Z,15.38
2018-09-05T06:34:08.514Z,15.40
2018-09-05T06:35:08.498Z,15.51
2018-09-05T06:36:08.844Z,15.51
2018-09-05T06:37:08.502Z,15.59
2018-09-05T06:38:08.739Z,15.52
2018-09-05T06:39:08.500Z,15.60
2018-09-05T06:40:08.434Z,15.58
2018-09-05T06:41:08.407Z,15.56
2018-09-05T06:42:08.397Z,15.59
2018-09-05T06:43:08.683Z,15.62
2018-09-05T06:44:08.343Z,15.65
2018-09-05T06:45:08.463Z,15.69
2018-09-05T06:46:08.286Z,15.72
2018-09-05T06:47:08.329Z,15.78
2018-09-05T06:48:08.306Z,15.76
2018-09-05T06:49:08.348Z,15.77
2018-09-05T06:50:08.683Z,15.80
2018-09-05T06:51:08.281Z,15.84
2018-09-05T06:54:08.178Z,15.91
2018-09-05T06:55:08.267Z,15.90
2018-09-05T06:56:08.205Z,15.93
2018-09-05T06:57:08.583Z,15.90
2018-09-05T06:59:08.162Z,15.93
2018-09-05T07:00:08.096Z,15.93
2018-09-05T07:01:08.136Z,15.96
2018-09-05T07:02:08.120Z,16.02
2018-09-05T07:03:08.055Z,15.99
2018-09-05T07:04:08.400Z,16.05
2018-09-05T07:05:08.033Z,16.09
2018-09-05T07:06:08.008Z,16.06
2018-09-05T07:07:08.062Z,16.08
2018-09-05T07:08:08.084Z,16.10
2018-09-05T07:09:08.023Z,16.05
2018-09-05T07:10:08.037Z,16.10
2018-09-05T07:11:08.308Z,16.08
2018-09-05T07:12:07.943Z,16.14
2018-09-05T07:13:07.922Z,16.18
2018-09-05T07:14:07.986Z,16.17
2018-09-05T07:15:07.944Z,16.22
2018-09-05T07:16:07.988Z,16.25
2018-09-05T07:17:07.869Z,16.29
2018-09-05T07:18:08.199Z,16.42
2018-09-05T07:19:07.893Z,16.43
2018-09-05T07:20:07.929Z,16.42
2018-09-05T07:21:07.821Z,16.43
2018-09-05T07:22:07.931Z,16.51
2018-09-05T07:23:07.814Z,16.52
2018-09-05T07:24:08.126Z,16.57
2018-09-05T07:25:20.541Z,16.70
2018-09-05T07:26:08.107Z,16.77
2018-09-05T07:27:07.787Z,16.79
2018-09-05T07:28:07.718Z,16.80
2018-09-05T07:29:07.753Z,16.94
2018-09-05T07:30:08.352Z,16.92
2018-09-05T07:31:07.747Z,17.07
2018-09-05T07:33:07.705Z,17.10
2018-09-05T07:34:07.688Z,17.14
2018-09-05T07:35:07.633Z,17.25
2018-09-05T07:36:07.962Z,17.12
2018-09-05T07:37:07.670Z,17.24
2018-09-05T07:38:07.637Z,17.22
2018-09-05T07:39:07.625Z,17.24
2018-09-05T07:40:07.610Z,17.30
2018-09-05T07:41:07.602Z,17.31
2018-09-05T07:42:07.887Z,17.27
2018-09-05T07:43:07.589Z,17.43
2018-09-05T07:44:07.575Z,17.46
2018-09-05T07:46:07.549Z,17.52
2018-09-05T07:47:07.526Z,17.56
2018-09-05T07:48:07.810Z,17.65
2018-09-05T07:49:07.655Z,17.71
2018-09-05T07:50:07.435Z,17.72
2018-09-05T07:51:07.526Z,17.79
2018-09-05T07:52:07.486Z,17.97
2018-09-05T07:53:07.456Z,17.99
2018-09-05T07:54:07.740Z,17.93
2018-09-05T07:56:07.361Z,17.93
2018-09-05T07:57:07.435Z,18.09
2018-09-05T07:58:07.498Z,18.11
2018-09-05T07:59:07.381Z,18.15
2018-09-05T08:00:07.662Z,18.11
2018-09-05T08:01:07.351Z,18.12
2018-09-05T08:02:07.301Z,18.30
2018-09-05T08:03:07.337Z,18.12
2018-09-05T08:04:08.152Z,18.13
2018-09-05T08:06:07.587Z,18.23
2018-09-05T08:07:07.283Z,18.31
2018-09-05T08:08:07.215Z,18.36
2018-09-05T08:09:07.307Z,18.27
2018-09-05T08:10:07.256Z,18.20
2018-09-05T08:11:07.246Z,18.26
2018-09-05T08:12:07.220Z,18.31
2018-09-05T08:13:08.184Z,18.31
2018-09-05T08:14:07.150Z,18.30
2018-09-05T08:16:07.180Z,18.31
2018-09-05T08:17:07.114Z,18.31
2018-09-05T08:18:07.170Z,18.34
2018-09-05T08:19:07.132Z,18.34
2018-09-05T08:20:07.432Z,18.30
2018-09-05T08:21:07.112Z,18.23
2018-09-05T08:22:07.054Z,18.36
2018-09-05T08:23:07.082Z,18.34
2018-09-05T08:24:07.090Z,18.33
2018-09-05T08:25:07.074Z,18.30
2018-09-05T08:26:07.054Z,18.30
2018-09-05T08:27:07.355Z,18.38
2018-09-05T08:28:07.047Z,18.42
2018-09-05T08:29:07.044Z,18.57
2018-09-05T08:30:07.162Z,18.57
2018-09-05T08:31:06.992Z,18.64
2018-09-05T08:32:07.023Z,18.64
2018-09-05T08:33:06.931Z,18.68
2018-09-05T08:34:07.262Z,18.70
2018-09-05T08:35:07.039Z,18.61
2018-09-05T08:36:07.064Z,18.74
2018-09-05T08:37:07.124Z,18.74
2018-09-05T08:38:07.046Z,18.70
2018-09-05T08:39:06.904Z,18.74
2018-09-05T08:40:06.890Z,18.78
2018-09-05T08:42:06.845Z,18.76
2018-09-05T08:43:06.854Z,18.76
2018-09-05T08:44:06.908Z,18.86
2018-09-05T08:46:07.030Z,18.88
2018-09-05T08:47:06.810Z,18.86
2018-09-05T08:48:07.109Z,18.97
2018-09-05T08:49:06.729Z,18.96
2018-09-05T08:50:06.767Z,19.00
2018-09-05T08:51:06.765Z,19.01
2018-09-05T08:52:06.757Z,19.12
2018-09-05T08:53:06.741Z,19.08
2018-09-05T08:54:06.679Z,19.04
2018-09-05T08:55:07.121Z,19.04
2018-09-05T08:56:06.653Z,19.22
2018-09-05T08:57:06.721Z,19.23
2018-09-05T08:58:06.671Z,19.41
2018-09-05T09:00:06.663Z,19.41
2018-09-05T09:01:06.669Z,19.35
2018-09-05T09:02:07.352Z,19.27
2018-09-05T09:03:06.678Z,19.45
2018-09-05T09:04:06.712Z,19.53
2018-09-05T09:05:06.640Z,19.62
2018-09-05T09:06:06.625Z,19.64
2018-09-05T09:07:06.611Z,19.71
2018-09-05T09:10:06.633Z,19.74
2018-09-05T09:11:06.584Z,19.79
2018-09-05T09:12:06.675Z,19.89
2018-09-05T09:14:06.512Z,20.04
2018-09-05T09:15:06.791Z,19.92
2018-09-05T09:16:06.515Z,19.99
2018-09-05T09:17:06.474Z,19.93
2018-09-05T09:18:07.176Z,20.02
2018-09-05T09:19:06.436Z,19.96
2018-09-05T09:20:06.382Z,20.18
2018-09-05T09:21:06.715Z,20.19
2018-09-05T09:22:06.400Z,20.25
2018-09-05T09:23:06.397Z,20.52
2018-09-05T09:24:06.381Z,20.55
2018-09-05T09:25:06.326Z,20.55
2018-09-05T09:26:06.464Z,20.79
2018-09-05T09:27:06.656Z,21.08
2018-09-05T09:28:06.539Z,21.18
2018-09-05T09:29:06.331Z,21.05
2018-09-05T09:30:06.340Z,20.90
2018-09-05T09:31:06.310Z,21.23
2018-09-05T09:32:06.300Z,21.37
2018-09-05T09:33:06.586Z,21.34
2018-09-05T09:34:06.275Z,21.45
2018-09-05T09:35:06.268Z,21.34
2018-09-05T09:36:06.259Z,21.28
2018-09-05T09:37:06.247Z,21.25
2018-09-05T09:40:06.246Z,21.23
2018-09-05T09:41:06.303Z,21.20
2018-09-05T09:42:06.193Z,21.14
2018-09-05T09:43:06.183Z,21.28
2018-09-05T09:44:06.169Z,21.35
2018-09-05T09:45:07.200Z,21.23
2018-09-05T09:46:06.452Z,21.07
2018-09-05T09:47:06.090Z,20.93
2018-09-05T09:48:06.087Z,20.88
2018-09-05T09:49:06.223Z,20.73
2018-09-05T09:50:06.170Z,20.64
2018-09-05T09:51:06.130Z,20.67
2018-09-05T09:52:06.045Z,21.07
2018-09-05T09:53:06.398Z,21.23
2018-09-05T09:54:06.069Z,21.11
2018-09-05T09:55:06.112Z,21.40
2018-09-05T09:56:06.066Z,21.98
2018-09-05T09:57:06.079Z,22.64
2018-09-05T09:58:06.044Z,22.96
2018-09-05T09:59:06.057Z,22.96
2018-09-05T10:00:06.311Z,23.44
2018-09-05T10:01:06.103Z,23.71
2018-09-05T10:02:06.053Z,24.01
2018-09-05T10:03:05.931Z,24.29
2018-09-05T10:04:06.199Z,24.37
2018-09-05T10:05:05.964Z,24.55
2018-09-05T10:06:05.955Z,24.70
2018-09-05T10:07:06.278Z,24.52
2018-09-05T10:09:05.928Z,24.33
2018-09-05T10:10:06.197Z,24.74
2018-09-05T10:11:05.932Z,24.99
2018-09-05T10:12:05.967Z,25.16
2018-09-05T10:13:05.901Z,25.28
2018-09-05T10:14:06.205Z,25.45
2018-09-05T10:15:05.888Z,25.15
2018-09-05T10:16:05.874Z,24.82
2018-09-05T10:17:05.932Z,24.85
2018-09-05T10:18:05.807Z,24.56
2018-09-05T10:19:05.825Z,24.25
2018-09-05T10:20:05.853Z,24.31
2018-09-05T10:21:06.206Z,24.04
2018-09-05T10:22:05.828Z,23.66
2018-09-05T10:23:05.822Z,23.29
2018-09-05T10:24:05.765Z,23.03
2018-09-05T10:25:05.820Z,22.81
2018-09-05T10:26:05.807Z,23.04
2018-09-05T10:27:06.148Z,23.70
2018-09-05T10:28:06.092Z,24.07
2018-09-05T10:29:05.738Z,23.82
2018-09-05T10:30:05.739Z,23.52
2018-09-05T10:31:05.767Z,23.15
2018-09-05T10:32:05.757Z,23.66
2018-09-05T10:33:05.749Z,23.51
2018-09-05T10:35:06.076Z,23.08
2018-09-05T10:36:07.011Z,23.44
2018-09-05T10:37:05.676Z,23.55
2018-09-05T10:38:05.669Z,23.61
2018-09-05T10:39:05.705Z,24.00
2018-09-05T10:40:05.699Z,24.56
2018-09-05T10:41:05.989Z,24.76
2018-09-05T10:42:05.729Z,24.97
2018-09-05T10:43:05.676Z,25.28
2018-09-05T10:44:05.749Z,25.33
2018-09-05T10:45:05.668Z,25.59
2018-09-05T10:46:05.666Z,25.64
2018-09-05T10:48:06.015Z,24.52
2018-09-05T10:49:05.880Z,23.89
2018-09-05T10:50:05.578Z,23.60
2018-09-05T10:51:05.639Z,23.18
2018-09-05T10:52:05.572Z,23.11
2018-09-05T10:53:05.759Z,23.04
2018-09-05T10:55:05.995Z,22.71
2018-09-05T10:56:05.587Z,22.91
2018-09-05T10:57:05.525Z,22.68
2018-09-05T10:58:05.548Z,22.62
2018-09-05T10:59:05.560Z,22.52
2018-09-05T11:00:05.603Z,23.17
2018-09-05T11:01:05.851Z,23.14
2018-09-05T11:03:05.540Z,24.22
2018-09-05T11:04:05.567Z,24.76
2018-09-05T11:06:05.562Z,24.36
2018-09-05T11:07:05.500Z,23.88
2018-09-05T11:08:05.806Z,24.41
2018-09-05T11:09:05.490Z,24.84
2018-09-05T11:10:05.478Z,25.18
2018-09-05T11:11:05.470Z,25.12
2018-09-05T11:12:05.534Z,24.71
2018-09-05T11:13:05.523Z,24.82
2018-09-05T11:14:05.751Z,25.12
2018-09-05T11:16:05.990Z,25.63
2018-09-05T11:17:05.441Z,25.93
2018-09-05T11:18:06.439Z,25.98
2018-09-05T11:19:05.434Z,26.20
2018-09-05T11:20:05.605Z,26.56
2018-09-05T11:21:05.763Z,25.64
2018-09-05T11:22:05.422Z,25.68
2018-09-05T11:23:05.408Z,25.73
2018-09-05T11:24:05.383Z,26.01
2018-09-05T11:25:05.374Z,26.23
2018-09-05T11:26:05.360Z,26.39
2018-09-05T11:27:05.322Z,26.51
2018-09-05T11:28:06.737Z,26.42
2018-09-05T11:29:05.384Z,26.36
2018-09-05T11:30:05.336Z,26.49
2018-09-05T11:31:05.596Z,26.60
2018-09-05T11:32:05.660Z,26.15
2018-09-05T11:33:07.419Z,26.36
2018-09-05T11:34:05.771Z,26.52
2018-09-05T11:35:05.831Z,26.79
2018-09-05T11:36:05.304Z,27.15
2018-09-05T11:37:05.473Z,27.26
2018-09-05T11:38:05.242Z,27.49
2018-09-05T11:39:05.239Z,27.45
2018-09-05T11:40:05.235Z,27.44
2018-09-05T11:41:05.284Z,27.58
2018-09-05T11:42:05.612Z,26.88
2018-09-05T11:43:05.391Z,26.63
2018-09-05T11:44:05.527Z,26.64
2018-09-05T11:46:05.578Z,27.32
2018-09-05T11:47:05.559Z,27.58
2018-09-05T11:48:20.173Z,27.49
2018-09-05T11:49:05.600Z,27.12
2018-09-05T11:50:05.190Z,27.03
2018-09-05T11:51:05.189Z,26.98
2018-09-05T11:52:05.183Z,27.35
2018-09-05T11:53:06.547Z,27.44
2018-09-05T11:54:05.225Z,27.41
2018-09-05T11:55:07.239Z,27.64
2018-09-05T11:56:11.142Z,27.94
2018-09-05T11:57:11.135Z,27.94
2018-09-05T11:59:05.424Z,27.93
2018-09-05T12:00:05.203Z,28.10
2018-09-05T12:01:05.208Z,28.10
2018-09-05T12:02:05.212Z,28.06
2018-09-05T12:04:05.494Z,28.00
2018-09-05T12:05:05.342Z,28.15
2018-09-05T12:06:05.467Z,28.31
2018-09-05T12:07:05.168Z,28.16
2018-09-05T12:08:05.169Z,28.07
2018-09-05T12:09:05.116Z,28.10
2018-09-05T12:10:05.112Z,28.17
2018-09-05T12:11:05.458Z,28.31
2018-09-05T12:12:05.208Z,28.47
2018-09-05T12:13:05.158Z,28.64
2018-09-05T12:14:05.159Z,28.65
2018-09-05T12:15:06.106Z,28.71
2018-09-05T12:18:05.447Z,28.80
2018-09-05T12:19:05.137Z,28.93
2018-09-05T12:20:05.141Z,28.86
2018-09-05T12:21:05.187Z,28.84
2018-09-05T12:22:05.145Z,28.86
2018-09-05T12:23:05.070Z,29.10
2018-09-05T12:24:06.124Z,29.28
2018-09-05T12:25:05.739Z,29.28
2018-09-05T12:26:05.943Z,29.19
2018-09-05T12:28:05.224Z,29.10
2018-09-05T12:29:05.064Z,28.53
2018-09-05T12:30:05.408Z,28.62
2018-09-05T12:31:05.055Z,28.74
2018-09-05T12:32:05.155Z,29.21
2018-09-05T12:33:05.306Z,29.34
2018-09-05T12:34:06.169Z,29.37
2018-09-05T12:35:05.379Z,29.44
2018-09-05T12:36:05.607Z,29.65
2018-09-05T12:37:05.284Z,29.68
2018-09-05T12:38:05.220Z,29.68
2018-09-05T12:39:05.096Z,29.52
2018-09-05T12:40:05.027Z,29.50
2018-09-05T12:41:05.026Z,29.54
2018-09-05T12:42:05.376Z,29.68
2018-09-05T12:43:05.072Z,29.89
2018-09-05T12:44:05.068Z,29.83
2018-09-05T12:45:05.070Z,29.91
2018-09-05T12:46:05.080Z,29.99
2018-09-05T12:47:05.070Z,29.89
2018-09-05T12:48:05.356Z,30.00
2018-09-05T12:49:05.008Z,30.17
2018-09-05T12:50:05.104Z,30.14
2018-09-05T12:51:05.054Z,30.07
2018-09-05T12:52:05.051Z,30.08
2018-09-05T12:53:05.106Z,29.87
2018-09-05T12:54:05.673Z,29.96
2018-09-05T12:55:05.156Z,29.95
2018-09-05T12:56:05.125Z,30.13
2018-09-05T12:57:05.200Z,30.24
2018-09-05T12:58:05.238Z,30.37
2018-09-05T12:59:04.991Z,30.28
2018-09-05T13:00:04.988Z,30.33
2018-09-05T13:01:05.329Z,30.10
2018-09-05T13:02:05.176Z,30.22
2018-09-05T13:03:05.132Z,29.91
2018-09-05T13:04:05.082Z,30.03
2018-09-05T13:05:05.015Z,30.00
2018-09-05T13:06:04.968Z,30.00
2018-09-05T13:07:05.022Z,29.96
2018-09-05T13:08:05.316Z,29.98
2018-09-05T13:09:05.019Z,30.00
2018-09-05T13:12:04.961Z,30.07
2018-09-05T13:13:05.009Z,30.14
2018-09-05T13:14:05.018Z,30.24
2018-09-05T13:15:05.311Z,30.00
2018-09-05T13:16:05.001Z,30.20
2018-09-05T13:17:05.001Z,30.36
2018-09-05T13:18:04.965Z,30.52
2018-09-05T13:19:05.196Z,29.56
2018-09-05T13:20:05.002Z,29.37
2018-09-05T13:21:05.046Z,28.56
2018-09-05T13:22:05.291Z,27.73
2018-09-05T13:24:04.930Z,27.66
2018-09-05T13:25:04.932Z,27.85
2018-09-05T13:27:05.311Z,28.81
2018-09-05T13:28:05.225Z,28.54
2018-09-05T13:29:06.571Z,28.47
2018-09-05T13:30:06.050Z,28.81
2018-09-05T13:31:05.333Z,29.25
2018-09-05T13:32:04.910Z,29.44
2018-09-05T13:33:04.969Z,29.46
2018-09-05T13:34:04.956Z,29.49
2018-09-05T13:35:04.903Z,29.33
2018-09-05T13:37:04.954Z,29.50
2018-09-05T13:38:05.127Z,29.43
2018-09-05T13:39:04.988Z,29.40
2018-09-05T13:40:04.883Z,29.10
2018-09-05T13:41:04.883Z,28.96
2018-09-05T13:42:04.887Z,29.54
2018-09-05T13:43:05.232Z,29.63
2018-09-05T13:45:05.668Z,29.06
2018-09-05T13:47:05.539Z,27.58
2018-09-05T13:48:06.178Z,27.88
2018-09-05T13:49:05.145Z,28.28
2018-09-05T13:50:06.024Z,28.65
2018-09-05T13:51:04.850Z,28.90
2018-09-05T13:52:05.314Z,29.07
2018-09-05T13:53:04.854Z,29.31
2018-09-05T13:54:04.937Z,29.44
2018-09-05T13:55:04.898Z,29.68
2018-09-05T13:56:05.184Z,29.27
2018-09-05T13:57:04.834Z,28.46
2018-09-05T13:58:04.835Z,27.95
2018-09-05T13:59:04.873Z,28.24